createdAt,value
2019-02-18T00:02:31.339Z,10.30
2019-02-18T00:07:45.678Z,10.20
2019-02-18T00:12:59.782Z,10.10
2019-02-18T00:18:14.327Z,10.10
2019-02-18T00:23:28.611Z,10.00
2019-02-18T00:28:43.116Z,9.90
2019-02-18T00:33:57.524Z,9.90
2019-02-18T00:39:12.216Z,9.80
2019-02-18T00:44:26.936Z,9.70
2019-02-18T00:49:41.589Z,9.70
2019-02-18T00:54:55.911Z,9.60
2019-02-18T01:06:30.482Z,9.50
2019-02-18T01:11:45.297Z,9.40
2019-02-18T01:16:59.795Z,9.30
2019-02-18T01:22:14.252Z,9.30
2019-02-18T01:27:28.970Z,9.20
2019-02-18T01:32:43.793Z,9.10
2019-02-18T01:37:58.412Z,9.10
2019-02-18T01:43:12.437Z,9.00
2019-02-18T01:48:26.986Z,9.00
2019-02-18T01:53:41.805Z,8.90
2019-02-18T01:58:56.820Z,8.90
2019-02-18T02:04:10.798Z,8.80
2019-02-18T02:09:25.404Z,8.80
2019-02-18T02:14:44.049Z,8.70
2019-02-18T02:25:27.558Z,8.60
2019-02-18T02:30:42.033Z,8.50
2019-02-18T02:35:56.294Z,8.40
2019-02-18T02:41:10.968Z,8.40
2019-02-18T02:46:25.548Z,8.40
2019-02-18T02:51:40.468Z,8.00
2019-02-18T02:56:54.804Z,7.00
2019-02-18T03:02:09.273Z,6.60
2019-02-18T03:07:24.059Z,6.10
2019-02-18T03:12:38.006Z,5.60
2019-02-18T03:17:52.318Z,5.20
2019-02-18T03:23:06.875Z,4.90
2019-02-18T03:29:05.752Z,4.70
2019-02-18T03:34:30.097Z,4.50
2019-02-18T03:39:45.055Z,4.30
2019-02-18T03:44:59.182Z,4.00
2019-02-18T03:50:13.438Z,3.80
2019-02-18T03:55:27.960Z,3.70
2019-02-18T04:00:42.340Z,3.60
2019-02-18T04:05:56.648Z,3.50
2019-02-18T04:11:11.084Z,3.30
2019-02-18T04:16:25.796Z,3.20
2019-02-18T04:21:40.355Z,3.20
2019-02-18T04:26:54.535Z,3.10
2019-02-18T04:32:09.031Z,3.10
2019-02-18T04:37:23.530Z,3.10
2019-02-18T04:42:37.846Z,3.00
2019-02-18T04:47:52.373Z,3.00
2019-02-18T04:53:06.922Z,2.90
2019-02-18T04:58:21.492Z,2.90
2019-02-18T05:03:36.149Z,2.80
2019-02-18T05:08:50.938Z,2.80
2019-02-18T05:14:05.109Z,2.80
2019-02-18T05:19:19.443Z,2.80
2019-02-18T05:24:33.764Z,2.70
2019-02-18T05:29:48.537Z,2.60
2019-02-18T05:35:03.160Z,2.50
2019-02-18T05:40:17.759Z,2.40
2019-02-18T05:45:32.411Z,2.40
2019-02-18T05:50:46.863Z,2.30
2019-02-18T05:56:01.301Z,2.20
2019-02-18T06:01:17.262Z,2.10
2019-02-18T06:06:31.637Z,2.10
2019-02-18T06:11:46.379Z,2.10
2019-02-18T06:17:02.747Z,2.00
2019-02-18T06:22:17.082Z,2.00
2019-02-18T06:27:31.623Z,2.00
2019-02-18T06:32:46.036Z,1.90
2019-02-18T06:38:00.338Z,1.90
2019-02-18T06:43:15.167Z,1.90
2019-02-18T06:48:32.246Z,1.90
2019-02-18T06:53:46.784Z,1.90
2019-02-18T06:59:09.928Z,2.00
2019-02-18T07:04:43.527Z,2.00
2019-02-18T07:10:04.238Z,1.90
2019-02-18T07:15:19.779Z,1.80
2019-02-18T07:20:34.188Z,1.80
2019-02-18T07:25:48.845Z,1.90
2019-02-18T07:31:02.866Z,2.00
2019-02-18T07:36:17.243Z,2.00
2019-02-18T07:41:31.642Z,2.00
2019-02-18T07:46:46.094Z,2.00
2019-02-18T07:52:01.040Z,2.00
2019-02-18T07:57:15.857Z,2.00
2019-02-18T08:02:30.417Z,2.20
2019-02-18T08:07:44.894Z,2.40
2019-02-18T08:12:59.586Z,2.50
2019-02-18T08:18:14.148Z,2.60
2019-02-18T08:23:28.560Z,2.70
2019-02-18T08:28:43.231Z,2.80
2019-02-18T08:33:57.695Z,3.00
2019-02-18T08:39:13.336Z,3.10
2019-02-18T08:44:27.971Z,3.30
2019-02-18T08:49:42.431Z,3.40
2019-02-18T08:54:57.214Z,3.50
2019-02-18T09:00:14.660Z,3.60
2019-02-18T09:05:29.471Z,3.80
2019-02-18T09:10:44.093Z,4.10
2019-02-18T09:16:03.562Z,4.50
2019-02-18T09:21:20.265Z,4.80
2019-02-18T09:32:26.263Z,5.40
2019-02-18T09:37:40.881Z,5.70
2019-02-18T09:42:56.809Z,6.00
2019-02-18T09:48:11.978Z,6.30
2019-02-18T09:53:26.513Z,6.70
2019-02-18T09:58:40.894Z,7.00
2019-02-18T10:03:55.351Z,7.30
2019-02-18T10:09:10.070Z,7.60
2019-02-18T10:14:24.745Z,7.80
2019-02-18T10:19:39.494Z,8.10
2019-02-18T10:24:53.753Z,8.40
2019-02-18T10:30:09.786Z,8.60
2019-02-18T10:35:26.421Z,8.90
2019-02-18T10:40:39.993Z,9.10
2019-02-18T10:45:54.841Z,9.40
2019-02-18T10:51:10.297Z,9.70
2019-02-18T10:56:24.603Z,10.10
2019-02-18T11:01:39.008Z,10.40
2019-02-18T11:06:54.425Z,10.70
2019-02-18T11:12:08.809Z,11.00
2019-02-18T11:17:23.151Z,11.40
2019-02-18T11:22:37.786Z,11.70
2019-02-18T11:27:52.610Z,12.10
2019-02-18T11:33:07.511Z,12.40
2019-02-18T11:38:22.251Z,12.80
2019-02-18T11:43:36.657Z,13.10
2019-02-18T11:48:51.157Z,13.40
2019-02-18T11:54:05.371Z,13.80
2019-02-18T11:59:24.328Z,14.20
2019-02-18T12:04:35.880Z,14.60
2019-02-18T12:09:50.592Z,15.00
2019-02-18T12:15:09.410Z,15.40
2019-02-18T12:20:54.797Z,15.80
2019-02-18T12:26:04.077Z,16.30
2019-02-18T12:31:18.433Z,16.70
2019-02-18T12:36:32.788Z,17.20
2019-02-18T12:41:49.014Z,17.60
2019-02-18T12:47:03.602Z,18.20
2019-02-18T12:52:18.098Z,18.80
2019-02-18T12:57:32.633Z,19.70
2019-02-18T13:08:08.072Z,22.70
2019-02-18T13:13:22.783Z,24.50
2019-02-18T13:18:37.534Z,26.20
2019-02-18T13:23:53.486Z,27.60
2019-02-18T13:29:07.901Z,28.40
2019-02-18T13:34:22.478Z,29.40
2019-02-18T13:39:39.531Z,30.40
2019-02-18T13:44:54.330Z,31.40
2019-02-18T13:50:09.838Z,31.90
2019-02-18T13:55:24.539Z,32.70
2019-02-18T14:00:39.097Z,33.30
2019-02-18T14:05:53.286Z,33.40
2019-02-18T14:11:07.837Z,33.60
2019-02-18T14:16:22.127Z,33.60
2019-02-18T14:21:36.404Z,33.80
2019-02-18T14:26:51.683Z,33.50
2019-02-18T14:32:06.144Z,33.10
2019-02-18T14:37:20.340Z,32.70
2019-02-18T14:42:34.831Z,32.30
2019-02-18T14:47:49.507Z,31.50
2019-02-18T14:53:04.386Z,30.60
2019-02-18T14:58:19.067Z,30.10
2019-02-18T15:03:34.206Z,29.50
2019-02-18T15:08:48.673Z,28.70
2019-02-18T15:14:06.262Z,27.70
2019-02-18T15:19:21.473Z,26.60
2019-02-18T15:24:38.095Z,25.20
2019-02-18T15:29:52.315Z,24.00
2019-02-18T15:35:07.979Z,23.00
2019-02-18T15:40:24.882Z,22.10
2019-02-18T15:45:39.825Z,21.20
2019-02-18T15:50:54.450Z,20.50
2019-02-18T15:56:09.773Z,20.00
2019-02-18T16:01:24.725Z,19.50
2019-02-18T16:06:40.197Z,19.10
2019-02-18T16:11:56.144Z,18.80
2019-02-18T16:17:10.953Z,18.40
2019-02-18T16:22:25.493Z,18.00
2019-02-18T16:27:40.130Z,17.80
2019-02-18T16:32:54.493Z,17.50
2019-02-18T16:38:08.913Z,17.20
2019-02-18T16:43:23.881Z,17.00
2019-02-18T16:48:38.403Z,16.70
2019-02-18T16:53:53.126Z,16.50
2019-02-18T16:59:08.748Z,16.20
2019-02-18T17:04:23.292Z,15.90
2019-02-18T17:09:38.038Z,15.70
2019-02-18T17:14:52.241Z,15.50
2019-02-18T17:20:07.296Z,15.30
2019-02-18T17:25:22.066Z,15.10
2019-02-18T17:30:37.125Z,14.80
2019-02-18T17:36:13.760Z,14.70
2019-02-18T17:41:29.338Z,14.60
2019-02-18T17:46:43.872Z,14.50
2019-02-18T17:51:58.870Z,14.30
2019-02-18T17:57:13.505Z,14.10
2019-02-18T18:02:28.206Z,13.90
2019-02-18T18:07:42.823Z,13.70
2019-02-18T18:12:57.655Z,13.50
2019-02-18T18:18:12.001Z,13.30
2019-02-18T18:23:27.325Z,13.20
2019-02-18T18:28:42.222Z,13.10
2019-02-18T18:34:02.202Z,12.90
2019-02-18T18:39:17.527Z,12.70
2019-02-18T18:44:32.565Z,12.60
2019-02-18T18:49:48.031Z,12.60
2019-02-18T19:00:26.116Z,12.40
2019-02-18T19:05:41.042Z,12.30
2019-02-18T19:10:56.121Z,12.30
2019-02-18T19:16:10.975Z,12.20
2019-02-18T19:21:25.522Z,12.10
2019-02-18T19:26:40.088Z,11.90
2019-02-18T19:31:54.537Z,11.80
2019-02-18T19:37:09.454Z,11.60
2019-02-18T19:42:24.869Z,11.40
2019-02-18T19:47:39.609Z,11.20
2019-02-18T19:52:54.293Z,11.10
2019-02-18T19:58:08.561Z,11.00
2019-02-18T20:03:23.100Z,10.70
2019-02-18T20:08:37.764Z,10.50
2019-02-18T20:13:58.764Z,10.20
2019-02-18T20:19:09.021Z,9.90
2019-02-18T20:24:23.824Z,9.70
2019-02-18T20:29:38.255Z,9.60
2019-02-18T20:34:52.876Z,9.50
2019-02-18T20:40:07.455Z,9.30
2019-02-18T20:45:25.035Z,9.10
2019-02-18T20:50:40.436Z,8.90
2019-02-18T20:55:55.179Z,8.60
2019-02-18T21:01:09.806Z,8.40
2019-02-18T21:06:24.485Z,8.30
2019-02-18T21:11:39.008Z,8.30
2019-02-18T21:16:54.473Z,8.30
2019-02-18T21:22:09.590Z,8.20
2019-02-18T21:27:24.231Z,8.10
2019-02-18T21:32:39.986Z,8.00
2019-02-18T21:37:54.684Z,7.90
2019-02-18T21:43:09.021Z,7.90
2019-02-18T21:48:23.544Z,7.90
2019-02-18T21:53:38.404Z,7.80
2019-02-18T21:58:53.372Z,7.70
2019-02-18T22:04:09.449Z,7.50
2019-02-18T22:09:23.953Z,7.30
2019-02-18T22:14:38.535Z,7.20
2019-02-18T22:19:53.358Z,7.00
2019-02-18T22:25:13.655Z,6.90
2019-02-18T22:30:28.229Z,6.90
2019-02-18T22:35:43.796Z,6.90
2019-02-18T22:40:58.481Z,6.60
2019-02-18T22:46:13.263Z,6.40
2019-02-18T22:51:28.022Z,6.30
2019-02-18T22:56:42.394Z,6.10
2019-02-18T23:01:57.377Z,6.10
2019-02-18T23:07:14.448Z,6.20
2019-02-18T23:12:29.105Z,6.10
2019-02-18T23:17:43.993Z,5.90
2019-02-18T23:22:59.108Z,5.80
2019-02-18T23:28:13.911Z,5.80
2019-02-18T23:33:28.758Z,5.90
2019-02-18T23:38:43.362Z,5.80
2019-02-18T23:43:57.999Z,5.80
2019-02-18T23:49:12.493Z,5.70
2019-02-18T23:54:27.239Z,5.70
2019-02-18T23:59:41.851Z,5.60
